sensor_id;sensor_type;location;lat;lon;timestamp;P1;durP1;ratioP1;P2;durP2;ratioP2
73452;SDS011;61687;56.232;43.854;2022-12-18T00:00:40;38.65;;;15.70;;
73452;SDS011;61687;56.232;43.854;2022-12-18T00:03:07;39.17;;;14.77;;
73452;SDS011;61687;56.232;43.854;2022-12-18T00:05:33;37.88;;;15.45;;
73452;SDS011;61687;56.232;43.854;2022-12-18T00:07:59;38.63;;;15.20;;
73452;SDS011;61687;56.232;43.854;2022-12-18T00:10:25;38.63;;;14.53;;
73452;SDS011;61687;56.232;43.854;2022-12-18T00:12:51;41.80;;;16.08;;
73452;SDS011;61687;56.232;43.854;2022-12-18T00:15:16;36.08;;;14.73;;
73452;SDS011;61687;56.232;43.854;2022-12-18T00:17:42;37.83;;;16.57;;
73452;SDS011;61687;56.232;43.854;2022-12-18T00:20:08;37.90;;;15.68;;
73452;SDS011;61687;56.232;43.854;2022-12-18T00:22:34;37.42;;;14.73;;
73452;SDS011;61687;56.232;43.854;2022-12-18T00:25:00;35.80;;;13.60;;
73452;SDS011;61687;56.232;43.854;2022-12-18T00:27:28;38.47;;;15.43;;
73452;SDS011;61687;56.232;43.854;2022-12-18T00:29:54;33.40;;;12.45;;
73452;SDS011;61687;56.232;43.854;2022-12-18T00:32:20;38.33;;;15.82;;
73452;SDS011;61687;56.232;43.854;2022-12-18T00:34:46;35.97;;;14.25;;
73452;SDS011;61687;56.232;43.854;2022-12-18T00:37:12;38.30;;;15.02;;
73452;SDS011;61687;56.232;43.854;2022-12-18T00:39:38;35.65;;;14.15;;
73452;SDS011;61687;56.232;43.854;2022-12-18T00:42:04;40.10;;;16.05;;
73452;SDS011;61687;56.232;43.854;2022-12-18T00:44:48;37.22;;;14.23;;
73452;SDS011;61687;56.232;43.854;2022-12-18T00:47:14;37.47;;;14.43;;
73452;SDS011;61687;56.232;43.854;2022-12-18T00:49:40;32.55;;;14.10;;
73452;SDS011;61687;56.232;43.854;2022-12-18T00:52:06;35.80;;;15.10;;
73452;SDS011;61687;56.232;43.854;2022-12-18T00:54:32;34.35;;;12.63;;
73452;SDS011;61687;56.232;43.854;2022-12-18T00:56:59;36.20;;;14.45;;
73452;SDS011;61687;56.232;43.854;2022-12-18T00:59:25;37.33;;;14.77;;
73452;SDS011;61687;56.232;43.854;2022-12-18T01:01:50;33.75;;;13.65;;
73452;SDS011;61687;56.232;43.854;2022-12-18T01:04:19;35.72;;;14.80;;
73452;SDS011;61687;56.232;43.854;2022-12-18T01:06:46;31.83;;;13.57;;
73452;SDS011;61687;56.232;43.854;2022-12-18T01:09:12;38.03;;;14.30;;
73452;SDS011;61687;56.232;43.854;2022-12-18T01:11:38;35.83;;;14.50;;
73452;SDS011;61687;56.232;43.854;2022-12-18T01:14:05;34.65;;;13.32;;
73452;SDS011;61687;56.232;43.854;2022-12-18T01:16:30;35.33;;;13.43;;
73452;SDS011;61687;56.232;43.854;2022-12-18T01:18:56;33.27;;;13.53;;
73452;SDS011;61687;56.232;43.854;2022-12-18T01:21:23;32.85;;;13.23;;
73452;SDS011;61687;56.232;43.854;2022-12-18T01:23:53;31.90;;;13.55;;
73452;SDS011;61687;56.232;43.854;2022-12-18T01:26:22;30.33;;;12.65;;
73452;SDS011;61687;56.232;43.854;2022-12-18T01:28:50;32.47;;;13.55;;
73452;SDS011;61687;56.232;43.854;2022-12-18T01:33:42;30.23;;;12.85;;
73452;SDS011;61687;56.232;43.854;2022-12-18T01:36:13;38.45;;;15.98;;
73452;SDS011;61687;56.232;43.854;2022-12-18T01:38:50;29.98;;;13.27;;
73452;SDS011;61687;56.232;43.854;2022-12-18T01:41:21;28.77;;;12.40;;
73452;SDS011;61687;56.232;43.854;2022-12-18T01:43:53;38.23;;;13.73;;
73452;SDS011;61687;56.232;43.854;2022-12-18T01:46:22;31.52;;;12.88;;
73452;SDS011;61687;56.232;43.854;2022-12-18T01:48:52;32.35;;;13.32;;
73452;SDS011;61687;56.232;43.854;2022-12-18T01:51:23;34.05;;;13.00;;
73452;SDS011;61687;56.232;43.854;2022-12-18T01:53:49;33.15;;;13.35;;
73452;SDS011;61687;56.232;43.854;2022-12-18T01:56:16;29.20;;;11.97;;
73452;SDS011;61687;56.232;43.854;2022-12-18T01:59:04;29.92;;;12.80;;
73452;SDS011;61687;56.232;43.854;2022-12-18T02:01:34;29.95;;;12.60;;
73452;SDS011;61687;56.232;43.854;2022-12-18T02:04:22;36.40;;;13.10;;
73452;SDS011;61687;56.232;43.854;2022-12-18T02:07:02;28.52;;;12.50;;
73452;SDS011;61687;56.232;43.854;2022-12-18T02:09:35;31.40;;;12.23;;
73452;SDS011;61687;56.232;43.854;2022-12-18T02:15:28;28.27;;;12.20;;
73452;SDS011;61687;56.232;43.854;2022-12-18T02:18:26;31.80;;;11.90;;
73452;SDS011;61687;56.232;43.854;2022-12-18T02:21:07;28.45;;;12.10;;
73452;SDS011;61687;56.232;43.854;2022-12-18T02:23:50;32.43;;;12.70;;
73452;SDS011;61687;56.232;43.854;2022-12-18T02:26:38;26.95;;;12.90;;
73452;SDS011;61687;56.232;43.854;2022-12-18T02:29:36;29.20;;;11.75;;
73452;SDS011;61687;56.232;43.854;2022-12-18T02:32:07;27.65;;;11.82;;
73452;SDS011;61687;56.232;43.854;2022-12-18T02:34:38;29.23;;;12.98;;
73452;SDS011;61687;56.232;43.854;2022-12-18T02:37:10;26.33;;;10.73;;
73452;SDS011;61687;56.232;43.854;2022-12-18T02:39:40;29.02;;;12.65;;
73452;SDS011;61687;56.232;43.854;2022-12-18T02:42:11;30.40;;;12.13;;
73452;SDS011;61687;56.232;43.854;2022-12-18T02:44:43;30.85;;;11.68;;
73452;SDS011;61687;56.232;43.854;2022-12-18T02:47:11;29.05;;;12.10;;
73452;SDS011;61687;56.232;43.854;2022-12-18T03:06:12;24.15;;;10.45;;
73452;SDS011;61687;56.232;43.854;2022-12-18T03:08:47;28.85;;;11.60;;
73452;SDS011;61687;56.232;43.854;2022-12-18T03:11:17;23.10;;;9.88;;
73452;SDS011;61687;56.232;43.854;2022-12-18T03:14:04;23.15;;;10.38;;
73452;SDS011;61687;56.232;43.854;2022-12-18T03:16:33;26.03;;;10.57;;
73452;SDS011;61687;56.232;43.854;2022-12-18T03:19:01;25.45;;;11.00;;
73452;SDS011;61687;56.232;43.854;2022-12-18T03:21:33;23.20;;;10.40;;
73452;SDS011;61687;56.232;43.854;2022-12-18T03:24:08;22.50;;;9.13;;
73452;SDS011;61687;56.232;43.854;2022-12-18T03:26:38;25.25;;;10.80;;
73452;SDS011;61687;56.232;43.854;2022-12-18T03:29:12;21.27;;;9.83;;
73452;SDS011;61687;56.232;43.854;2022-12-18T03:31:47;20.38;;;8.65;;
73452;SDS011;61687;56.232;43.854;2022-12-18T03:34:32;20.30;;;9.38;;
73452;SDS011;61687;56.232;43.854;2022-12-18T03:37:04;20.40;;;8.75;;
73452;SDS011;61687;56.232;43.854;2022-12-18T03:39:31;20.65;;;9.68;;
73452;SDS011;61687;56.232;43.854;2022-12-18T03:44:42;16.80;;;8.20;;
73452;SDS011;61687;56.232;43.854;2022-12-18T03:47:27;16.60;;;7.82;;
73452;SDS011;61687;56.232;43.854;2022-12-18T03:50:06;16.50;;;8.55;;
73452;SDS011;61687;56.232;43.854;2022-12-18T03:52:39;20.13;;;9.57;;
73452;SDS011;61687;56.232;43.854;2022-12-18T03:55:11;20.27;;;8.83;;
73452;SDS011;61687;56.232;43.854;2022-12-18T03:57:39;21.88;;;9.55;;
73452;SDS011;61687;56.232;43.854;2022-12-18T04:00:17;20.00;;;9.45;;
73452;SDS011;61687;56.232;43.854;2022-12-18T04:02:54;17.92;;;8.70;;
73452;SDS011;61687;56.232;43.854;2022-12-18T04:05:30;19.17;;;9.75;;
73452;SDS011;61687;56.232;43.854;2022-12-18T04:08:00;21.43;;;8.80;;
73452;SDS011;61687;56.232;43.854;2022-12-18T04:10:27;17.10;;;8.23;;
73452;SDS011;61687;56.232;43.854;2022-12-18T04:12:57;23.27;;;10.05;;
73452;SDS011;61687;56.232;43.854;2022-12-18T04:15:23;18.58;;;8.80;;
73452;SDS011;61687;56.232;43.854;2022-12-18T04:17:50;18.65;;;9.40;;
73452;SDS011;61687;56.232;43.854;2022-12-18T04:20:19;20.53;;;9.70;;
73452;SDS011;61687;56.232;43.854;2022-12-18T04:22:46;21.40;;;9.48;;
73452;SDS011;61687;56.232;43.854;2022-12-18T04:25:12;19.20;;;9.70;;
73452;SDS011;61687;56.232;43.854;2022-12-18T04:27:48;20.80;;;8.88;;
73452;SDS011;61687;56.232;43.854;2022-12-18T04:30:14;21.40;;;9.60;;
73452;SDS011;61687;56.232;43.854;2022-12-18T04:32:40;22.42;;;10.27;;
73452;SDS011;61687;56.232;43.854;2022-12-18T04:35:08;20.10;;;9.63;;
73452;SDS011;61687;56.232;43.854;2022-12-18T04:37:37;20.95;;;8.93;;
73452;SDS011;61687;56.232;43.854;2022-12-18T04:40:04;19.63;;;9.55;;
73452;SDS011;61687;56.232;43.854;2022-12-18T04:42:39;20.70;;;9.73;;
73452;SDS011;61687;56.232;43.854;2022-12-18T04:45:06;20.30;;;9.52;;
73452;SDS011;61687;56.232;43.854;2022-12-18T04:47:33;20.83;;;9.43;;
73452;SDS011;61687;56.232;43.854;2022-12-18T04:49:58;16.92;;;8.35;;
73452;SDS011;61687;56.232;43.854;2022-12-18T04:52:24;18.57;;;9.20;;
73452;SDS011;61687;56.232;43.854;2022-12-18T04:54:50;22.23;;;9.43;;
73452;SDS011;61687;56.232;43.854;2022-12-18T04:57:16;21.67;;;9.38;;
73452;SDS011;61687;56.232;43.854;2022-12-18T04:59:43;20.25;;;9.95;;
73452;SDS011;61687;56.232;43.854;2022-12-18T05:02:10;22.10;;;9.80;;
73452;SDS011;61687;56.232;43.854;2022-12-18T05:04:36;18.67;;;8.48;;
73452;SDS011;61687;56.232;43.854;2022-12-18T05:07:02;22.05;;;9.18;;
73452;SDS011;61687;56.232;43.854;2022-12-18T05:09:28;19.57;;;8.80;;
73452;SDS011;61687;56.232;43.854;2022-12-18T05:11:54;21.88;;;9.48;;
73452;SDS011;61687;56.232;43.854;2022-12-18T05:14:19;20.25;;;10.27;;
73452;SDS011;61687;56.232;43.854;2022-12-18T05:16:45;22.13;;;9.93;;
73452;SDS011;61687;56.232;43.854;2022-12-18T05:19:11;20.95;;;9.35;;
73452;SDS011;61687;56.232;43.854;2022-12-18T05:21:37;22.92;;;10.50;;
73452;SDS011;61687;56.232;43.854;2022-12-18T05:24:03;23.17;;;10.10;;
73452;SDS011;61687;56.232;43.854;2022-12-18T05:26:29;21.77;;;10.57;;
73452;SDS011;61687;56.232;43.854;2022-12-18T05:28:55;23.08;;;10.82;;
73452;SDS011;61687;56.232;43.854;2022-12-18T05:31:21;23.50;;;9.30;;
73452;SDS011;61687;56.232;43.854;2022-12-18T05:33:47;21.38;;;10.30;;
73452;SDS011;61687;56.232;43.854;2022-12-18T05:36:16;23.95;;;11.55;;
73452;SDS011;61687;56.232;43.854;2022-12-18T05:38:42;21.83;;;9.73;;
73452;SDS011;61687;56.232;43.854;2022-12-18T05:41:08;25.75;;;10.40;;
73452;SDS011;61687;56.232;43.854;2022-12-18T05:43:35;23.33;;;10.77;;
73452;SDS011;61687;56.232;43.854;2022-12-18T05:46:05;23.48;;;10.10;;
73452;SDS011;61687;56.232;43.854;2022-12-18T05:48:33;22.73;;;9.50;;
73452;SDS011;61687;56.232;43.854;2022-12-18T05:51:09;25.33;;;11.40;;
73452;SDS011;61687;56.232;43.854;2022-12-18T05:53:37;23.92;;;11.05;;
73452;SDS011;61687;56.232;43.854;2022-12-18T05:56:03;26.02;;;10.75;;
73452;SDS011;61687;56.232;43.854;2022-12-18T05:58:31;25.88;;;11.73;;
73452;SDS011;61687;56.232;43.854;2022-12-18T06:00:57;27.00;;;11.30;;
73452;SDS011;61687;56.232;43.854;2022-12-18T06:03:30;22.35;;;11.07;;
73452;SDS011;61687;56.232;43.854;2022-12-18T06:05:56;24.20;;;10.45;;
73452;SDS011;61687;56.232;43.854;2022-12-18T06:08:22;21.33;;;10.13;;
73452;SDS011;61687;56.232;43.854;2022-12-18T06:10:52;22.80;;;10.37;;
73452;SDS011;61687;56.232;43.854;2022-12-18T06:13:18;24.58;;;10.18;;
73452;SDS011;61687;56.232;43.854;2022-12-18T06:15:45;21.92;;;10.23;;
73452;SDS011;61687;56.232;43.854;2022-12-18T06:18:11;19.70;;;9.40;;
73452;SDS011;61687;56.232;43.854;2022-12-18T06:20:36;22.67;;;9.83;;
73452;SDS011;61687;56.232;43.854;2022-12-18T06:23:05;19.85;;;9.77;;
73452;SDS011;61687;56.232;43.854;2022-12-18T06:25:31;21.40;;;9.90;;
73452;SDS011;61687;56.232;43.854;2022-12-18T06:27:58;17.75;;;9.05;;
73452;SDS011;61687;56.232;43.854;2022-12-18T06:30:24;17.85;;;9.15;;
73452;SDS011;61687;56.232;43.854;2022-12-18T06:32:50;20.83;;;9.40;;
73452;SDS011;61687;56.232;43.854;2022-12-18T06:35:16;22.60;;;10.38;;
73452;SDS011;61687;56.232;43.854;2022-12-18T06:37:42;20.48;;;9.35;;
73452;SDS011;61687;56.232;43.854;2022-12-18T06:40:08;20.90;;;9.40;;
73452;SDS011;61687;56.232;43.854;2022-12-18T06:42:34;23.42;;;10.10;;
73452;SDS011;61687;56.232;43.854;2022-12-18T06:45:00;20.30;;;9.30;;
73452;SDS011;61687;56.232;43.854;2022-12-18T06:47:26;20.20;;;9.67;;
73452;SDS011;61687;56.232;43.854;2022-12-18T06:49:52;22.05;;;10.52;;
73452;SDS011;61687;56.232;43.854;2022-12-18T06:52:17;21.05;;;10.20;;
73452;SDS011;61687;56.232;43.854;2022-12-18T06:54:43;21.77;;;10.27;;
73452;SDS011;61687;56.232;43.854;2022-12-18T06:57:09;26.88;;;11.90;;
73452;SDS011;61687;56.232;43.854;2022-12-18T06:59:35;24.67;;;11.37;;
73452;SDS011;61687;56.232;43.854;2022-12-18T07:02:00;25.30;;;11.90;;
73452;SDS011;61687;56.232;43.854;2022-12-18T07:04:29;23.77;;;9.90;;
73452;SDS011;61687;56.232;43.854;2022-12-18T07:06:56;22.43;;;9.33;;
73452;SDS011;61687;56.232;43.854;2022-12-18T07:09:23;23.60;;;10.13;;
73452;SDS011;61687;56.232;43.854;2022-12-18T07:11:49;23.10;;;10.05;;
73452;SDS011;61687;56.232;43.854;2022-12-18T07:14:15;20.10;;;9.65;;
73452;SDS011;61687;56.232;43.854;2022-12-18T07:16:41;22.87;;;10.20;;
73452;SDS011;61687;56.232;43.854;2022-12-18T07:19:06;19.30;;;9.98;;
73452;SDS011;61687;56.232;43.854;2022-12-18T07:21:32;26.33;;;11.50;;
73452;SDS011;61687;56.232;43.854;2022-12-18T07:23:58;20.48;;;9.70;;
73452;SDS011;61687;56.232;43.854;2022-12-18T07:26:24;22.13;;;10.45;;
73452;SDS011;61687;56.232;43.854;2022-12-18T07:28:54;23.77;;;11.05;;
73452;SDS011;61687;56.232;43.854;2022-12-18T07:31:21;25.67;;;11.17;;
73452;SDS011;61687;56.232;43.854;2022-12-18T07:33:47;24.17;;;11.18;;
73452;SDS011;61687;56.232;43.854;2022-12-18T07:36:14;25.48;;;11.18;;
73452;SDS011;61687;56.232;43.854;2022-12-18T07:38:40;22.95;;;10.88;;
73452;SDS011;61687;56.232;43.854;2022-12-18T07:41:08;21.37;;;9.33;;
73452;SDS011;61687;56.232;43.854;2022-12-18T07:43:35;21.52;;;10.80;;
73452;SDS011;61687;56.232;43.854;2022-12-18T07:46:02;20.98;;;11.05;;
73452;SDS011;61687;56.232;43.854;2022-12-18T07:48:28;22.00;;;10.95;;
73452;SDS011;61687;56.232;43.854;2022-12-18T07:50:58;25.63;;;10.98;;
73452;SDS011;61687;56.232;43.854;2022-12-18T07:53:24;20.50;;;9.50;;
73452;SDS011;61687;56.232;43.854;2022-12-18T07:55:58;23.83;;;10.50;;
73452;SDS011;61687;56.232;43.854;2022-12-18T07:58:25;20.80;;;10.13;;
73452;SDS011;61687;56.232;43.854;2022-12-18T08:00:50;22.88;;;10.00;;
73452;SDS011;61687;56.232;43.854;2022-12-18T08:03:17;23.92;;;10.85;;
73452;SDS011;61687;56.232;43.854;2022-12-18T08:05:44;22.20;;;10.52;;
73452;SDS011;61687;56.232;43.854;2022-12-18T08:08:09;20.73;;;10.55;;
73452;SDS011;61687;56.232;43.854;2022-12-18T08:10:35;24.77;;;10.90;;
73452;SDS011;61687;56.232;43.854;2022-12-18T08:13:02;25.33;;;11.07;;
73452;SDS011;61687;56.232;43.854;2022-12-18T08:15:28;24.27;;;11.18;;
73452;SDS011;61687;56.232;43.854;2022-12-18T08:17:57;22.33;;;11.15;;
73452;SDS011;61687;56.232;43.854;2022-12-18T08:20:23;26.80;;;11.85;;
73452;SDS011;61687;56.232;43.854;2022-12-18T08:22:49;22.77;;;11.30;;
73452;SDS011;61687;56.232;43.854;2022-12-18T08:25:15;28.33;;;13.27;;
73452;SDS011;61687;56.232;43.854;2022-12-18T08:27:41;29.08;;;13.32;;
73452;SDS011;61687;56.232;43.854;2022-12-18T08:30:07;29.90;;;13.30;;
73452;SDS011;61687;56.232;43.854;2022-12-18T08:32:33;31.88;;;13.82;;
73452;SDS011;61687;56.232;43.854;2022-12-18T08:34:59;30.73;;;13.77;;
73452;SDS011;61687;56.232;43.854;2022-12-18T08:37:25;30.42;;;13.45;;
73452;SDS011;61687;56.232;43.854;2022-12-18T08:39:51;32.13;;;15.03;;
73452;SDS011;61687;56.232;43.854;2022-12-18T08:42:17;33.78;;;14.35;;
73452;SDS011;61687;56.232;43.854;2022-12-18T08:45:02;33.03;;;14.85;;
73452;SDS011;61687;56.232;43.854;2022-12-18T08:47:29;34.58;;;14.25;;
73452;SDS011;61687;56.232;43.854;2022-12-18T08:49:55;31.80;;;13.43;;
73452;SDS011;61687;56.232;43.854;2022-12-18T08:52:21;29.98;;;14.75;;
73452;SDS011;61687;56.232;43.854;2022-12-18T08:54:47;29.37;;;13.57;;
73452;SDS011;61687;56.232;43.854;2022-12-18T08:57:13;31.13;;;12.82;;
73452;SDS011;61687;56.232;43.854;2022-12-18T08:59:38;33.45;;;14.45;;
73452;SDS011;61687;56.232;43.854;2022-12-18T09:02:04;28.90;;;13.23;;
73452;SDS011;61687;56.232;43.854;2022-12-18T09:04:30;29.65;;;14.43;;
73452;SDS011;61687;56.232;43.854;2022-12-18T09:06:56;26.75;;;11.85;;
73452;SDS011;61687;56.232;43.854;2022-12-18T09:09:22;30.33;;;11.93;;
73452;SDS011;61687;56.232;43.854;2022-12-18T09:11:48;25.20;;;12.32;;
73452;SDS011;61687;56.232;43.854;2022-12-18T09:14:14;25.30;;;12.50;;
73452;SDS011;61687;56.232;43.854;2022-12-18T09:16:39;27.75;;;11.93;;
73452;SDS011;61687;56.232;43.854;2022-12-18T09:19:05;28.45;;;13.45;;
73452;SDS011;61687;56.232;43.854;2022-12-18T09:21:32;27.90;;;12.97;;
73452;SDS011;61687;56.232;43.854;2022-12-18T09:24:02;26.45;;;12.55;;
73452;SDS011;61687;56.232;43.854;2022-12-18T09:26:29;22.27;;;11.63;;
73452;SDS011;61687;56.232;43.854;2022-12-18T09:28:55;24.98;;;10.98;;
73452;SDS011;61687;56.232;43.854;2022-12-18T09:31:22;22.90;;;11.80;;
73452;SDS011;61687;56.232;43.854;2022-12-18T09:33:49;23.03;;;11.23;;
73452;SDS011;61687;56.232;43.854;2022-12-18T09:36:16;24.88;;;12.07;;
73452;SDS011;61687;56.232;43.854;2022-12-18T09:38:43;25.95;;;12.25;;
73452;SDS011;61687;56.232;43.854;2022-12-18T09:43:58;27.50;;;12.98;;
73452;SDS011;61687;56.232;43.854;2022-12-18T09:46:28;29.67;;;14.32;;
73452;SDS011;61687;56.232;43.854;2022-12-18T09:48:58;29.15;;;13.65;;
73452;SDS011;61687;56.232;43.854;2022-12-18T09:51:28;27.73;;;12.98;;
73452;SDS011;61687;56.232;43.854;2022-12-18T09:54:00;28.83;;;13.15;;
73452;SDS011;61687;56.232;43.854;2022-12-18T09:56:29;29.55;;;13.95;;
73452;SDS011;61687;56.232;43.854;2022-12-18T09:59:01;29.27;;;13.02;;
73452;SDS011;61687;56.232;43.854;2022-12-18T10:01:29;29.15;;;12.85;;
73452;SDS011;61687;56.232;43.854;2022-12-18T10:03:57;28.48;;;13.18;;
73452;SDS011;61687;56.232;43.854;2022-12-18T10:06:26;36.03;;;14.40;;
73452;SDS011;61687;56.232;43.854;2022-12-18T10:09:37;27.10;;;12.40;;
73452;SDS011;61687;56.232;43.854;2022-12-18T10:20:27;31.33;;;12.88;;
73452;SDS011;61687;56.232;43.854;2022-12-18T10:23:04;31.77;;;12.32;;
73452;SDS011;61687;56.232;43.854;2022-12-18T10:25:34;24.75;;;12.52;;
73452;SDS011;61687;56.232;43.854;2022-12-18T10:28:18;32.05;;;14.75;;
73452;SDS011;61687;56.232;43.854;2022-12-18T10:30:45;35.65;;;14.90;;
73452;SDS011;61687;56.232;43.854;2022-12-18T10:33:13;31.40;;;13.90;;
73452;SDS011;61687;56.232;43.854;2022-12-18T10:35:41;26.58;;;13.48;;
73452;SDS011;61687;56.232;43.854;2022-12-18T10:48:34;32.08;;;13.00;;
73452;SDS011;61687;56.232;43.854;2022-12-18T10:51:05;30.60;;;12.47;;
73452;SDS011;61687;56.232;43.854;2022-12-18T10:53:33;27.70;;;12.95;;
73452;SDS011;61687;56.232;43.854;2022-12-18T10:56:02;29.70;;;13.05;;
73452;SDS011;61687;56.232;43.854;2022-12-18T10:58:31;28.90;;;12.85;;
73452;SDS011;61687;56.232;43.854;2022-12-18T11:03:44;32.10;;;13.23;;
73452;SDS011;61687;56.232;43.854;2022-12-18T11:06:13;29.73;;;13.65;;
73452;SDS011;61687;56.232;43.854;2022-12-18T11:08:42;26.48;;;11.85;;
73452;SDS011;61687;56.232;43.854;2022-12-18T11:11:22;25.13;;;12.30;;
73452;SDS011;61687;56.232;43.854;2022-12-18T11:13:56;31.58;;;13.30;;
73452;SDS011;61687;56.232;43.854;2022-12-18T11:16:26;29.08;;;11.73;;
73452;SDS011;61687;56.232;43.854;2022-12-18T11:19:07;23.70;;;9.98;;
73452;SDS011;61687;56.232;43.854;2022-12-18T11:21:40;21.55;;;10.55;;
73452;SDS011;61687;56.232;43.854;2022-12-18T11:24:14;26.83;;;11.35;;
73452;SDS011;61687;56.232;43.854;2022-12-18T11:26:54;31.63;;;13.27;;
73452;SDS011;61687;56.232;43.854;2022-12-18T11:29:24;20.77;;;9.80;;
73452;SDS011;61687;56.232;43.854;2022-12-18T11:32:41;28.30;;;11.82;;
73452;SDS011;61687;56.232;43.854;2022-12-18T11:34:57;27.83;;;12.20;;
73452;SDS011;61687;56.232;43.854;2022-12-18T11:37:28;27.17;;;11.07;;
73452;SDS011;61687;56.232;43.854;2022-12-18T11:40:01;28.20;;;12.85;;
73452;SDS011;61687;56.232;43.854;2022-12-18T11:42:37;23.27;;;10.87;;
73452;SDS011;61687;56.232;43.854;2022-12-18T11:50:19;28.83;;;11.93;;
73452;SDS011;61687;56.232;43.854;2022-12-18T11:52:49;23.30;;;11.30;;
73452;SDS011;61687;56.232;43.854;2022-12-18T11:55:16;29.50;;;12.17;;
73452;SDS011;61687;56.232;43.854;2022-12-18T12:00:39;25.60;;;11.40;;
73452;SDS011;61687;56.232;43.854;2022-12-18T12:03:46;23.05;;;9.77;;
73452;SDS011;61687;56.232;43.854;2022-12-18T12:09:06;22.13;;;9.90;;
73452;SDS011;61687;56.232;43.854;2022-12-18T12:23:01;21.90;;;9.43;;
73452;SDS011;61687;56.232;43.854;2022-12-18T12:25:52;27.02;;;10.70;;
73452;SDS011;61687;56.232;43.854;2022-12-18T12:37:12;23.50;;;9.83;;
73452;SDS011;61687;56.232;43.854;2022-12-18T12:39:52;16.88;;;9.00;;
73452;SDS011;61687;56.232;43.854;2022-12-18T12:42:31;24.73;;;11.35;;
73452;SDS011;61687;56.232;43.854;2022-12-18T12:45:22;20.17;;;9.43;;
73452;SDS011;61687;56.232;43.854;2022-12-18T12:47:54;22.92;;;9.95;;
73452;SDS011;61687;56.232;43.854;2022-12-18T12:50:23;23.73;;;10.40;;
73452;SDS011;61687;56.232;43.854;2022-12-18T12:52:52;17.00;;;7.78;;
73452;SDS011;61687;56.232;43.854;2022-12-18T12:55:21;22.13;;;10.25;;
73452;SDS011;61687;56.232;43.854;2022-12-18T12:58:14;17.55;;;7.88;;
73452;SDS011;61687;56.232;43.854;2022-12-18T13:09:06;22.50;;;9.65;;
73452;SDS011;61687;56.232;43.854;2022-12-18T13:11:34;20.52;;;9.23;;
73452;SDS011;61687;56.232;43.854;2022-12-18T13:17:16;16.30;;;8.93;;
73452;SDS011;61687;56.232;43.854;2022-12-18T13:19:48;18.20;;;9.07;;
73452;SDS011;61687;56.232;43.854;2022-12-18T13:22:34;17.20;;;8.55;;
73452;SDS011;61687;56.232;43.854;2022-12-18T13:25:04;18.58;;;8.45;;
73452;SDS011;61687;56.232;43.854;2022-12-18T13:28:01;15.97;;;7.47;;
73452;SDS011;61687;56.232;43.854;2022-12-18T13:38:21;17.83;;;8.85;;
73452;SDS011;61687;56.232;43.854;2022-12-18T13:43:41;21.48;;;10.02;;
73452;SDS011;61687;56.232;43.854;2022-12-18T13:46:19;17.05;;;9.07;;
73452;SDS011;61687;56.232;43.854;2022-12-18T13:48:49;21.65;;;9.25;;
73452;SDS011;61687;56.232;43.854;2022-12-18T13:51:19;16.05;;;8.02;;
73452;SDS011;61687;56.232;43.854;2022-12-18T13:56:27;18.58;;;8.93;;
73452;SDS011;61687;56.232;43.854;2022-12-18T13:59:11;19.38;;;10.23;;
73452;SDS011;61687;56.232;43.854;2022-12-18T14:01:43;22.45;;;9.50;;
73452;SDS011;61687;56.232;43.854;2022-12-18T14:04:24;32.70;;;8.65;;
73452;SDS011;61687;56.232;43.854;2022-12-18T14:07:04;19.33;;;9.50;;
73452;SDS011;61687;56.232;43.854;2022-12-18T14:09:36;16.08;;;8.32;;
73452;SDS011;61687;56.232;43.854;2022-12-18T14:12:12;14.63;;;8.50;;
73452;SDS011;61687;56.232;43.854;2022-12-18T14:17:52;17.40;;;9.20;;
73452;SDS011;61687;56.232;43.854;2022-12-18T14:20:20;18.03;;;9.43;;
73452;SDS011;61687;56.232;43.854;2022-12-18T14:22:47;20.25;;;8.30;;
73452;SDS011;61687;56.232;43.854;2022-12-18T14:25:15;20.85;;;9.90;;
73452;SDS011;61687;56.232;43.854;2022-12-18T14:27:48;15.75;;;7.72;;
73452;SDS011;61687;56.232;43.854;2022-12-18T14:30:22;19.52;;;9.45;;
73452;SDS011;61687;56.232;43.854;2022-12-18T14:35:34;18.73;;;9.35;;
73452;SDS011;61687;56.232;43.854;2022-12-18T14:40:52;18.38;;;8.93;;
73452;SDS011;61687;56.232;43.854;2022-12-18T14:43:26;19.95;;;9.32;;
73452;SDS011;61687;56.232;43.854;2022-12-18T14:45:53;16.27;;;8.00;;
73452;SDS011;61687;56.232;43.854;2022-12-18T14:48:20;19.08;;;8.93;;
73452;SDS011;61687;56.232;43.854;2022-12-18T14:51:01;16.60;;;9.10;;
73452;SDS011;61687;56.232;43.854;2022-12-18T14:56:00;19.30;;;8.93;;
73452;SDS011;61687;56.232;43.854;2022-12-18T14:58:27;19.07;;;9.07;;
73452;SDS011;61687;56.232;43.854;2022-12-18T15:00:53;23.73;;;11.23;;
73452;SDS011;61687;56.232;43.854;2022-12-18T15:03:20;18.30;;;9.35;;
73452;SDS011;61687;56.232;43.854;2022-12-18T15:05:47;21.20;;;8.93;;
73452;SDS011;61687;56.232;43.854;2022-12-18T15:08:29;22.87;;;10.57;;
73452;SDS011;61687;56.232;43.854;2022-12-18T15:10:59;24.27;;;10.98;;
73452;SDS011;61687;56.232;43.854;2022-12-18T15:13:25;18.25;;;8.23;;
73452;SDS011;61687;56.232;43.854;2022-12-18T15:15:52;19.50;;;9.65;;
73452;SDS011;61687;56.232;43.854;2022-12-18T15:18:21;23.43;;;9.83;;
73452;SDS011;61687;56.232;43.854;2022-12-18T15:20:59;21.98;;;9.82;;
73452;SDS011;61687;56.232;43.854;2022-12-18T15:26:08;21.58;;;10.27;;
73452;SDS011;61687;56.232;43.854;2022-12-18T15:28:37;21.38;;;10.55;;
73452;SDS011;61687;56.232;43.854;2022-12-18T15:31:35;19.80;;;9.33;;
73452;SDS011;61687;56.232;43.854;2022-12-18T15:34:11;20.80;;;9.27;;
73452;SDS011;61687;56.232;43.854;2022-12-18T15:36:43;17.73;;;8.18;;
73452;SDS011;61687;56.232;43.854;2022-12-18T15:39:10;19.45;;;9.93;;
73452;SDS011;61687;56.232;43.854;2022-12-18T15:41:37;18.52;;;8.68;;
73452;SDS011;61687;56.232;43.854;2022-12-18T15:44:16;17.57;;;8.47;;
73452;SDS011;61687;56.232;43.854;2022-12-18T15:46:48;21.05;;;9.45;;
73452;SDS011;61687;56.232;43.854;2022-12-18T15:49:14;18.30;;;8.50;;
73452;SDS011;61687;56.232;43.854;2022-12-18T15:51:40;21.65;;;10.13;;
73452;SDS011;61687;56.232;43.854;2022-12-18T15:54:06;19.00;;;8.30;;
73452;SDS011;61687;56.232;43.854;2022-12-18T15:56:38;17.00;;;8.40;;
73452;SDS011;61687;56.232;43.854;2022-12-18T15:59:22;18.58;;;7.82;;
73452;SDS011;61687;56.232;43.854;2022-12-18T16:01:49;23.40;;;9.63;;
73452;SDS011;61687;56.232;43.854;2022-12-18T16:04:18;19.13;;;9.32;;
73452;SDS011;61687;56.232;43.854;2022-12-18T16:06:46;19.75;;;8.80;;
73452;SDS011;61687;56.232;43.854;2022-12-18T16:09:13;20.73;;;9.07;;
73452;SDS011;61687;56.232;43.854;2022-12-18T16:11:39;17.17;;;8.90;;
73452;SDS011;61687;56.232;43.854;2022-12-18T16:14:19;20.17;;;9.32;;
73452;SDS011;61687;56.232;43.854;2022-12-18T16:16:46;15.60;;;8.15;;
73452;SDS011;61687;56.232;43.854;2022-12-18T16:19:17;22.23;;;9.07;;
73452;SDS011;61687;56.232;43.854;2022-12-18T16:21:43;21.60;;;10.05;;
73452;SDS011;61687;56.232;43.854;2022-12-18T16:24:17;18.73;;;9.17;;
73452;SDS011;61687;56.232;43.854;2022-12-18T16:26:47;19.20;;;8.68;;
73452;SDS011;61687;56.232;43.854;2022-12-18T16:29:13;18.15;;;9.13;;